createdAt,value
2022-11-18T00:00:28.467Z,6.23
2022-11-18T00:02:59.722Z,6.77
2022-11-18T00:05:31.177Z,6.83
2022-11-18T00:08:02.459Z,6.23
2022-11-18T00:10:33.900Z,5.50
2022-11-18T00:13:24.192Z,6.33
2022-11-18T00:16:07.584Z,5.40
2022-11-18T00:18:39.261Z,6.10
2022-11-18T00:21:12.120Z,5.80
2022-11-18T00:23:43.397Z,5.70
2022-11-18T00:26:14.982Z,5.87
2022-11-18T00:28:46.241Z,5.87
2022-11-18T00:31:17.615Z,6.23
2022-11-18T00:33:48.871Z,6.27
2022-11-18T00:36:20.185Z,5.93
2022-11-18T00:38:51.436Z,6.20
2022-11-18T00:41:22.773Z,5.73
2022-11-18T00:43:54.117Z,7.50
2022-11-18T00:46:25.461Z,6.90
2022-11-18T00:48:56.695Z,6.90
2022-11-18T00:51:27.957Z,6.53
2022-11-18T00:53:59.248Z,5.33
2022-11-18T00:56:30.540Z,7.13
2022-11-18T00:59:01.913Z,7.40
2022-11-18T01:01:33.625Z,6.07
2022-11-18T01:04:05.065Z,6.97
2022-11-18T01:06:36.338Z,5.73
2022-11-18T01:09:07.643Z,7.37
2022-11-18T01:11:57.636Z,7.07
2022-11-18T01:14:29.068Z,7.33
2022-11-18T01:17:00.464Z,7.30
2022-11-18T01:19:31.732Z,6.60
2022-11-18T01:22:03.611Z,7.47
2022-11-18T01:24:35.010Z,6.83
2022-11-18T01:27:06.346Z,6.77
2022-11-18T01:29:37.620Z,6.60
2022-11-18T01:32:23.990Z,7.60
2022-11-18T01:34:56.483Z,7.27
2022-11-18T01:37:27.785Z,6.73
2022-11-18T01:39:59.036Z,7.23
2022-11-18T01:42:30.331Z,7.07
2022-11-18T01:45:05.140Z,6.93
2022-11-18T01:47:46.663Z,7.90
2022-11-18T01:50:21.424Z,7.83
2022-11-18T01:52:57.823Z,7.97
2022-11-18T01:55:34.121Z,7.67
2022-11-18T01:58:15.764Z,7.95
2022-11-18T02:00:47.142Z,9.03
2022-11-18T02:03:18.747Z,8.47
2022-11-18T02:05:53.704Z,5.57
2022-11-18T02:08:25.728Z,7.77
2022-11-18T02:10:57.093Z,7.70
2022-11-18T02:13:28.960Z,7.43
2022-11-18T02:16:19.040Z,7.07
2022-11-18T02:19:02.693Z,7.67
2022-11-18T02:21:45.354Z,6.23
2022-11-18T02:24:58.592Z,7.17
2022-11-18T02:27:55.717Z,6.63
2022-11-18T02:30:39.145Z,7.30
2022-11-18T02:33:17.932Z,7.27
2022-11-18T02:35:56.613Z,7.30
2022-11-18T02:39:05.320Z,7.43
2022-11-18T02:41:39.513Z,7.30
2022-11-18T02:44:16.222Z,7.20
2022-11-18T02:46:52.991Z,6.30
2022-11-18T02:49:34.670Z,6.83
2022-11-18T02:52:09.048Z,7.10
2022-11-18T02:54:43.539Z,7.47
2022-11-18T02:57:15.921Z,7.47
2022-11-18T02:59:47.358Z,7.33
2022-11-18T03:02:23.155Z,7.93
2022-11-18T03:04:57.658Z,8.15
2022-11-18T03:07:36.412Z,7.20
2022-11-18T03:10:07.903Z,7.77
2022-11-18T03:13:20.454Z,7.63
2022-11-18T03:16:16.605Z,7.17
2022-11-18T03:19:01.643Z,8.20
2022-11-18T03:22:02.183Z,8.37
2022-11-18T03:24:39.712Z,7.73
2022-11-18T03:27:18.431Z,7.30
2022-11-18T03:29:59.064Z,7.83
2022-11-18T03:32:36.246Z,7.57
2022-11-18T03:35:11.235Z,8.27
2022-11-18T03:37:44.419Z,7.20
2022-11-18T03:40:21.978Z,7.23
2022-11-18T03:42:59.857Z,8.80
2022-11-18T03:45:37.122Z,9.10
2022-11-18T03:48:16.372Z,8.97
2022-11-18T03:50:56.195Z,9.63
2022-11-18T03:53:30.851Z,10.20
2022-11-18T03:56:12.863Z,8.97
2022-11-18T03:59:00.407Z,7.43
2022-11-18T04:01:38.965Z,8.10
2022-11-18T04:04:11.240Z,7.90
2022-11-18T04:06:48.601Z,8.50
2022-11-18T04:09:33.429Z,9.10
2022-11-18T04:12:10.883Z,7.80
2022-11-18T04:14:44.316Z,8.93
2022-11-18T04:17:19.681Z,9.20
2022-11-18T04:19:51.037Z,10.03
2022-11-18T04:22:22.324Z,9.30
2022-11-18T04:24:53.580Z,9.23
2022-11-18T04:27:24.913Z,10.63
2022-11-18T04:29:56.228Z,8.43
2022-11-18T04:32:27.495Z,9.10
2022-11-18T04:34:59.100Z,9.97
2022-11-18T04:37:30.430Z,9.63
2022-11-18T04:40:01.792Z,9.63
2022-11-18T04:42:33.051Z,10.77
2022-11-18T04:45:05.398Z,10.93
2022-11-18T04:47:37.298Z,9.33
2022-11-18T04:50:08.998Z,10.47
2022-11-18T04:52:40.320Z,10.97
2022-11-18T04:55:11.592Z,11.30
2022-11-18T04:57:42.838Z,10.00
2022-11-18T05:00:14.558Z,11.37
2022-11-18T05:02:45.943Z,13.17
2022-11-18T05:05:17.273Z,10.80
2022-11-18T05:07:48.695Z,10.63
2022-11-18T05:10:19.992Z,11.43
2022-11-18T05:12:52.328Z,10.77
2022-11-18T05:15:24.485Z,10.13
2022-11-18T05:17:59.256Z,10.77
2022-11-18T05:20:30.838Z,10.67
2022-11-18T05:23:02.169Z,10.07
2022-11-18T05:25:35.533Z,9.70
2022-11-18T05:28:06.869Z,11.23
2022-11-18T05:30:38.224Z,11.03
2022-11-18T05:33:09.555Z,11.27
2022-11-18T05:35:40.904Z,10.90
2022-11-18T05:38:12.286Z,12.60
2022-11-18T05:40:43.704Z,10.83
2022-11-18T05:43:15.064Z,11.20
2022-11-18T05:45:46.701Z,12.77
2022-11-18T05:48:18.761Z,11.00
2022-11-18T05:50:51.967Z,10.50
2022-11-18T05:53:24.800Z,11.07
2022-11-18T05:56:07.381Z,10.27
2022-11-18T05:58:38.657Z,12.53
2022-11-18T06:01:11.936Z,11.57
2022-11-18T06:03:43.765Z,10.83
2022-11-18T06:06:17.631Z,12.67
2022-11-18T06:09:10.569Z,12.57
2022-11-18T06:11:46.566Z,11.83
2022-11-18T06:14:24.792Z,11.35
2022-11-18T06:17:02.162Z,11.43
2022-11-18T06:19:34.088Z,11.80
2022-11-18T06:22:06.596Z,12.10
2022-11-18T06:24:38.662Z,11.67
2022-11-18T06:27:10.564Z,11.00
2022-11-18T06:29:41.904Z,12.93
2022-11-18T06:32:13.304Z,10.93
2022-11-18T06:34:44.563Z,11.60
2022-11-18T06:37:18.125Z,12.77
2022-11-18T06:39:49.517Z,12.30
2022-11-18T06:42:39.323Z,12.70
2022-11-18T06:45:10.894Z,11.97
2022-11-18T06:47:42.344Z,12.97
2022-11-18T06:50:13.735Z,11.13
2022-11-18T06:52:45.362Z,12.27
2022-11-18T06:55:16.744Z,12.03
2022-11-18T06:57:48.052Z,11.00
2022-11-18T07:00:19.719Z,11.63
2022-11-18T07:02:51.045Z,11.40
2022-11-18T07:05:22.508Z,11.47
2022-11-18T07:07:53.908Z,11.33
2022-11-18T07:10:25.471Z,12.10
2022-11-18T07:12:56.720Z,11.97
2022-11-18T07:15:28.016Z,12.10
2022-11-18T07:17:59.364Z,11.77
2022-11-18T07:20:30.693Z,11.77
2022-11-18T07:23:02.035Z,11.30
2022-11-18T07:25:33.390Z,11.60
2022-11-18T07:28:04.839Z,11.13
2022-11-18T07:30:36.244Z,10.10
2022-11-18T07:33:07.533Z,10.80
2022-11-18T07:35:38.916Z,10.70
2022-11-18T07:38:10.336Z,9.80
2022-11-18T07:40:41.674Z,10.83
2022-11-18T07:43:13.046Z,10.53
2022-11-18T07:45:44.404Z,9.93
2022-11-18T07:48:15.770Z,10.37
2022-11-18T07:50:47.461Z,10.13
2022-11-18T07:53:18.820Z,10.83
2022-11-18T07:55:50.184Z,11.53
2022-11-18T07:58:21.551Z,9.33
2022-11-18T08:00:52.884Z,10.87
2022-11-18T08:03:27.761Z,10.73
2022-11-18T08:06:00.143Z,11.13
2022-11-18T08:08:31.847Z,10.13
2022-11-18T08:11:06.240Z,11.17
2022-11-18T08:13:37.959Z,11.30
2022-11-18T08:16:20.928Z,11.93
2022-11-18T08:18:52.987Z,10.90
2022-11-18T08:21:24.465Z,11.27
2022-11-18T08:23:58.024Z,11.90
2022-11-18T08:26:29.488Z,11.57
2022-11-18T08:29:00.912Z,11.87
2022-11-18T08:31:32.447Z,12.00
2022-11-18T08:34:07.512Z,12.23
2022-11-18T08:36:39.241Z,13.00
2022-11-18T08:39:12.125Z,10.17
2022-11-18T08:41:44.108Z,13.27
2022-11-18T08:44:16.781Z,13.67
2022-11-18T08:46:48.112Z,12.70
2022-11-18T08:49:19.838Z,13.03
2022-11-18T08:51:51.517Z,13.90
2022-11-18T08:54:22.971Z,14.70
2022-11-18T08:56:54.329Z,12.37
2022-11-18T08:59:25.899Z,14.23
2022-11-18T09:01:57.281Z,14.07
2022-11-18T09:04:28.677Z,12.63
2022-11-18T09:07:00.092Z,14.23
2022-11-18T09:09:31.612Z,13.30
2022-11-18T09:12:03.082Z,13.67
2022-11-18T09:17:26.027Z,14.00
2022-11-18T09:19:57.356Z,12.27
2022-11-18T09:22:28.708Z,14.07
2022-11-18T09:25:00.034Z,12.73
2022-11-18T09:27:31.392Z,13.93
2022-11-18T09:30:02.884Z,15.00
2022-11-18T09:32:34.485Z,13.63
2022-11-18T09:35:05.873Z,14.17
2022-11-18T09:37:37.181Z,13.77
2022-11-18T09:40:17.962Z,13.40
2022-11-18T09:43:15.538Z,12.10
2022-11-18T09:45:52.172Z,12.37
2022-11-18T09:48:46.341Z,13.53
2022-11-18T09:51:17.615Z,12.83
2022-11-18T09:53:49.250Z,12.17
2022-11-18T09:56:22.092Z,13.70
2022-11-18T09:58:53.465Z,14.23
2022-11-18T10:01:27.720Z,11.87
2022-11-18T10:03:59.309Z,12.20
2022-11-18T10:06:34.059Z,11.73
2022-11-18T10:09:39.239Z,12.43
2022-11-18T10:12:40.635Z,9.90
2022-11-18T10:15:35.740Z,10.67
2022-11-18T10:18:44.915Z,11.67
2022-11-18T10:21:24.435Z,11.50
2022-11-18T10:24:28.544Z,10.77
2022-11-18T10:27:00.553Z,11.37
2022-11-18T10:29:32.818Z,11.77
2022-11-18T10:32:12.276Z,11.67
2022-11-18T10:34:52.490Z,11.93
2022-11-18T10:38:00.617Z,11.43
2022-11-18T10:40:27.777Z,9.80
2022-11-18T10:42:59.613Z,11.73
2022-11-18T10:45:32.493Z,11.73
2022-11-18T10:48:16.500Z,10.63
2022-11-18T10:50:55.583Z,10.83
2022-11-18T10:53:32.122Z,12.10
2022-11-18T10:56:15.937Z,9.65
2022-11-18T10:58:49.918Z,11.73
2022-11-18T11:01:24.287Z,11.63
2022-11-18T11:04:00.201Z,10.90
2022-11-18T11:06:34.186Z,12.07
2022-11-18T11:09:23.331Z,10.20
2022-11-18T11:12:13.160Z,10.27
2022-11-18T11:14:53.558Z,12.40
2022-11-18T11:18:10.490Z,13.10
2022-11-18T11:20:41.854Z,11.93
2022-11-18T11:23:18.993Z,10.07
2022-11-18T11:28:58.125Z,10.40
2022-11-18T11:31:50.923Z,10.87
2022-11-18T11:34:29.178Z,10.10
2022-11-18T11:37:09.352Z,9.73
2022-11-18T11:39:53.129Z,9.30
2022-11-18T11:42:53.006Z,10.43
2022-11-18T11:45:33.722Z,10.17
2022-11-18T11:48:31.139Z,10.23
2022-11-18T11:53:54.991Z,7.87
2022-11-18T11:56:34.779Z,9.90
2022-11-18T11:59:44.753Z,9.43
2022-11-18T12:02:35.468Z,10.43
2022-11-18T12:05:28.885Z,10.10
2022-11-18T12:08:01.625Z,9.67
2022-11-18T12:10:47.329Z,9.57
2022-11-18T12:13:30.420Z,8.33
2022-11-18T12:16:18.326Z,9.20
2022-11-18T12:19:16.769Z,8.97
2022-11-18T12:22:00.478Z,8.57
2022-11-18T12:24:36.344Z,6.60
2022-11-18T12:27:29.885Z,7.85
2022-11-18T12:30:03.713Z,7.43
2022-11-18T12:32:43.716Z,7.43
2022-11-18T12:35:14.950Z,7.10
2022-11-18T12:37:52.171Z,7.37
2022-11-18T12:40:34.097Z,7.07
2022-11-18T12:43:44.228Z,7.80
2022-11-18T12:46:31.027Z,6.73
2022-11-18T12:49:31.433Z,6.88
2022-11-18T12:52:39.510Z,6.97
2022-11-18T12:55:19.287Z,7.27
2022-11-18T12:57:51.772Z,6.70
2022-11-18T13:00:23.092Z,6.80
2022-11-18T13:02:59.733Z,6.83
2022-11-18T13:05:33.895Z,6.87
2022-11-18T13:08:17.954Z,7.67
2022-11-18T13:11:14.716Z,6.50
2022-11-18T13:13:46.498Z,6.38
2022-11-18T13:16:40.448Z,6.63
2022-11-18T13:19:21.957Z,6.50
2022-11-18T13:22:13.598Z,6.80
2022-11-18T13:24:47.824Z,6.40
2022-11-18T13:27:27.853Z,7.40
2022-11-18T13:30:13.318Z,7.40
2022-11-18T13:32:46.595Z,6.40
2022-11-18T13:35:21.366Z,6.20
2022-11-18T13:37:59.430Z,6.20
2022-11-18T13:40:38.777Z,6.17
2022-11-18T13:43:11.909Z,6.03
2022-11-18T13:45:43.297Z,5.87
2022-11-18T13:48:15.089Z,6.07
2022-11-18T13:50:55.063Z,5.97
2022-11-18T13:53:38.178Z,5.40
2022-11-18T13:56:20.269Z,6.00
2022-11-18T13:59:16.334Z,5.20
2022-11-18T14:01:54.928Z,5.30
2022-11-18T14:04:30.245Z,6.13
2022-11-18T14:07:33.013Z,5.53
2022-11-18T14:10:07.483Z,5.20
2022-11-18T14:12:38.835Z,4.93
2022-11-18T14:15:14.613Z,5.30
2022-11-18T14:17:58.823Z,5.50
2022-11-18T14:20:31.442Z,5.10
2022-11-18T14:23:05.430Z,6.23
2022-11-18T14:25:36.958Z,4.90
2022-11-18T14:28:17.582Z,4.97
2022-11-18T14:31:07.469Z,5.50
2022-11-18T14:33:39.025Z,5.40
2022-11-18T14:36:17.706Z,5.60
2022-11-18T14:39:19.219Z,4.37
2022-11-18T14:41:48.565Z,5.20
2022-11-18T14:44:21.688Z,4.87
2022-11-18T14:46:57.303Z,5.70
2022-11-18T14:49:31.413Z,3.67
2022-11-18T14:52:04.476Z,4.63
2022-11-18T14:54:35.772Z,4.73
2022-11-18T14:57:10.917Z,4.80
2022-11-18T14:59:42.801Z,4.40
2022-11-18T15:02:15.996Z,4.23
2022-11-18T15:04:48.328Z,4.53
2022-11-18T15:07:23.813Z,4.63
2022-11-18T15:09:55.496Z,4.88
2022-11-18T15:12:26.849Z,5.17
2022-11-18T15:14:58.108Z,4.37
2022-11-18T15:17:29.700Z,4.80
2022-11-18T15:20:01.079Z,5.10
2022-11-18T15:22:33.994Z,5.43
2022-11-18T15:25:05.692Z,5.50
2022-11-18T15:27:37.632Z,5.10
2022-11-18T15:30:12.553Z,5.80
2022-11-18T15:32:43.967Z,4.70
2022-11-18T15:35:15.339Z,5.40
2022-11-18T15:37:46.696Z,4.80
2022-11-18T15:40:19.291Z,5.10
2022-11-18T15:42:52.273Z,5.83
2022-11-18T15:45:23.796Z,5.07
2022-11-18T15:47:55.087Z,5.80
2022-11-18T15:50:26.359Z,5.90
2022-11-18T15:52:57.718Z,5.50
2022-11-18T15:55:29.015Z,6.23
2022-11-18T15:58:00.287Z,5.70
2022-11-18T16:00:31.539Z,5.43
2022-11-18T16:03:02.864Z,5.60
2022-11-18T16:05:34.140Z,5.97
2022-11-18T16:08:05.535Z,5.63
2022-11-18T16:10:55.307Z,6.20
2022-11-18T16:13:26.793Z,5.63
2022-11-18T16:15:58.066Z,6.70
2022-11-18T16:18:29.326Z,5.80
2022-11-18T16:21:00.693Z,6.00
2022-11-18T16:23:32.033Z,6.47
2022-11-18T16:26:03.860Z,6.67
2022-11-18T16:28:35.188Z,7.50
2022-11-18T16:31:25.947Z,6.10
2022-11-18T16:33:57.250Z,7.07
2022-11-18T16:36:28.723Z,6.57
2022-11-18T16:39:08.936Z,5.50
2022-11-18T16:41:41.463Z,6.60
2022-11-18T16:44:16.605Z,7.30
2022-11-18T16:46:50.216Z,6.20
2022-11-18T16:49:24.154Z,6.03
2022-11-18T16:51:56.692Z,6.67
2022-11-18T16:54:30.388Z,6.40
2022-11-18T16:57:01.811Z,5.70
2022-11-18T16:59:33.124Z,6.83
2022-11-18T17:02:05.676Z,7.17
2022-11-18T17:04:38.509Z,7.10
2022-11-18T17:07:09.911Z,5.87
2022-11-18T17:09:41.508Z,6.37
2022-11-18T17:12:12.857Z,6.63
2022-11-18T17:14:44.221Z,7.13
2022-11-18T17:17:15.504Z,6.90
2022-11-18T17:19:47.061Z,8.13
2022-11-18T17:22:19.438Z,6.07
2022-11-18T17:24:50.809Z,8.13
2022-11-18T17:27:22.165Z,7.20
2022-11-18T17:29:53.475Z,6.57
2022-11-18T17:32:24.722Z,6.97
2022-11-18T17:34:55.972Z,7.40
2022-11-18T17:37:29.286Z,6.73
2022-11-18T17:40:00.539Z,6.90
2022-11-18T17:42:31.860Z,7.13
2022-11-18T17:45:03.235Z,7.37
2022-11-18T17:47:34.495Z,6.63
2022-11-18T17:50:07.267Z,7.67
2022-11-18T17:52:38.531Z,6.90
2022-11-18T17:55:10.010Z,7.20
2022-11-18T17:57:41.280Z,7.50
2022-11-18T18:00:13.089Z,7.43
2022-11-18T18:02:44.431Z,7.90
2022-11-18T18:05:16.108Z,8.00
2022-11-18T18:07:48.330Z,6.63
2022-11-18T18:10:20.045Z,7.77
2022-11-18T18:13:09.979Z,7.90
2022-11-18T18:15:41.301Z,9.67
2022-11-18T18:18:12.727Z,7.90
2022-11-18T18:20:43.992Z,6.90
2022-11-18T18:23:15.370Z,9.10
2022-11-18T18:25:46.707Z,8.00
2022-11-18T18:28:18.540Z,7.60
2022-11-18T18:30:57.964Z,7.30
2022-11-18T18:33:29.495Z,7.40
2022-11-18T18:36:02.044Z,8.13
2022-11-18T18:38:35.353Z,7.70
2022-11-18T18:41:10.004Z,7.43
2022-11-18T18:43:41.688Z,7.50
2022-11-18T18:46:29.304Z,7.00
2022-11-18T18:49:09.359Z,7.80
2022-11-18T18:51:45.382Z,7.37
2022-11-18T18:54:19.824Z,8.40
2022-11-18T18:56:53.418Z,6.50
2022-11-18T18:59:24.794Z,7.50
2022-11-18T19:01:56.132Z,6.73
2022-11-18T19:04:27.519Z,7.17
2022-11-18T19:07:00.274Z,6.97
2022-11-18T19:09:36.296Z,6.90
2022-11-18T19:12:28.272Z,6.63
2022-11-18T19:14:59.716Z,6.97
2022-11-18T19:17:31.195Z,8.53
2022-11-18T19:20:20.908Z,6.73
2022-11-18T19:22:52.321Z,7.97
2022-11-18T19:25:23.710Z,6.57
2022-11-18T19:27:55.033Z,8.00
2022-11-18T19:30:26.979Z,8.17
2022-11-18T19:32:58.855Z,7.53
2022-11-18T19:35:30.234Z,7.40
2022-11-18T19:38:01.730Z,7.40
2022-11-18T19:40:34.199Z,8.23
2022-11-18T19:43:05.486Z,7.00
2022-11-18T19:45:36.982Z,7.27
2022-11-18T19:48:08.253Z,6.40
2022-11-18T19:50:39.629Z,6.97
2022-11-18T19:53:29.799Z,7.13
2022-11-18T19:56:09.335Z,6.73
2022-11-18T19:58:42.426Z,6.60
2022-11-18T20:01:22.719Z,6.50
2022-11-18T20:03:59.905Z,7.13
2022-11-18T20:06:31.844Z,6.20
2022-11-18T20:09:06.899Z,6.90
2022-11-18T20:11:38.477Z,6.80
2022-11-18T20:14:11.142Z,6.47
2022-11-18T20:16:42.588Z,6.97
2022-11-18T20:19:15.243Z,6.60
2022-11-18T20:21:48.060Z,6.63
2022-11-18T20:24:19.496Z,7.50
2022-11-18T20:26:51.964Z,6.90
2022-11-18T20:29:23.383Z,7.33
2022-11-18T20:31:55.913Z,6.87
2022-11-18T20:34:27.367Z,6.50
2022-11-18T20:36:58.750Z,5.97
2022-11-18T20:39:30.034Z,6.30
2022-11-18T20:42:19.793Z,6.20
2022-11-18T20:44:51.130Z,6.60
2022-11-18T20:47:22.414Z,7.00
2022-11-18T20:49:53.914Z,6.03
2022-11-18T20:52:25.237Z,6.40
2022-11-18T20:55:00.117Z,6.27
2022-11-18T20:57:33.972Z,6.53
2022-11-18T21:00:05.935Z,6.60
2022-11-18T21:02:37.197Z,7.07
2022-11-18T21:05:09.752Z,6.87
2022-11-18T21:07:41.149Z,5.90
2022-11-18T21:10:12.573Z,7.03
2022-11-18T21:13:03.896Z,6.67
2022-11-18T21:15:35.544Z,6.87
2022-11-18T21:18:06.897Z,7.23
2022-11-18T21:20:57.040Z,7.63
2022-11-18T21:23:28.376Z,7.63
2022-11-18T21:26:00.824Z,7.63
2022-11-18T21:28:32.101Z,7.17
2022-11-18T21:31:03.511Z,7.30
2022-11-18T21:33:34.833Z,7.30
2022-11-18T21:36:06.505Z,7.13
2022-11-18T21:38:37.763Z,8.57
2022-11-18T21:41:09.695Z,7.17
2022-11-18T21:44:04.551Z,7.30
2022-11-18T21:46:34.483Z,7.53
2022-11-18T21:49:06.155Z,7.60
2022-11-18T21:51:37.713Z,8.53
2022-11-18T21:54:09.233Z,8.50
2022-11-18T21:56:40.604Z,8.20
2022-11-18T21:59:11.996Z,7.53
2022-11-18T22:01:43.316Z,9.47
2022-11-18T22:04:34.576Z,8.77
2022-11-18T22:07:06.010Z,7.93
2022-11-18T22:09:37.335Z,7.67
2022-11-18T22:12:09.091Z,7.80
2022-11-18T22:14:41.140Z,7.97
2022-11-18T22:17:12.396Z,8.97
2022-11-18T22:19:43.692Z,8.20
2022-11-18T22:22:15.550Z,8.13
2022-11-18T22:24:46.810Z,8.10
2022-11-18T22:27:18.086Z,7.73
2022-11-18T22:29:49.348Z,7.73
2022-11-18T22:32:20.608Z,8.13
2022-11-18T22:34:52.047Z,7.63
2022-11-18T22:37:23.362Z,7.33
2022-11-18T22:39:54.680Z,6.50
2022-11-18T22:42:44.573Z,8.10
2022-11-18T22:45:16.428Z,7.60
2022-11-18T22:47:47.746Z,7.30
2022-11-18T22:50:19.231Z,7.13
2022-11-18T22:52:50.512Z,7.50
2022-11-18T22:55:21.826Z,6.73
2022-11-18T22:57:53.122Z,6.67
2022-11-18T23:00:24.466Z,7.00
2022-11-18T23:02:55.724Z,7.17
2022-11-18T23:05:27.055Z,6.93
2022-11-18T23:07:58.420Z,6.50
2022-11-18T23:10:30.342Z,6.50
2022-11-18T23:13:20.421Z,7.30
2022-11-18T23:15:51.706Z,8.07
2022-11-18T23:18:23.079Z,7.40
2022-11-18T23:21:02.016Z,7.17
2022-11-18T23:23:33.395Z,7.57
2022-11-18T23:26:13.093Z,6.53
2022-11-18T23:28:44.645Z,7.43
2022-11-18T23:31:18.837Z,6.37
2022-11-18T23:33:50.614Z,7.53
2022-11-18T23:36:22.639Z,6.93
2022-11-18T23:38:54.119Z,6.77
2022-11-18T23:41:25.396Z,6.40
2022-11-18T23:43:56.727Z,6.73
2022-11-18T23:46:28.062Z,6.30
2022-11-18T23:48:59.338Z,6.27
2022-11-18T23:51:30.679Z,6.70
2022-11-18T23:54:02.023Z,5.93
2022-11-18T23:56:37.766Z,6.30
